Time;durP1;ratioP1;P1;durP2;ratioP2;P2;SDS_P1;SDS_P2;PMS_P1;PMS_P2;Temp;Humidity;BMP_temperature;BMP_pressure;BME280_temperature;BME280_humidity;BME280_pressure;Samples;Min_cycle;Max_cycle;Signal;HPM_P1;HPM_P2
2021/12/26 00:00:34;;;;;;;4.00;2.20;;;;;;;-3.39;100.00;100849.25;5034216;28;20120;-49
2021/12/26 00:02:59;;;;;;;7.07;2.20;;;;;;;-3.94;100.00;100764.72;5034108;28;20030;-51
2021/12/26 00:05:26;;;;;;;2.03;1.55;;;;;;;-3.61;100.00;100847.84;5033764;28;20033;-50
2021/12/26 00:07:58;;;;;;;4.07;2.25;;;;;;;-3.67;100.00;100855.41;5033059;28;20041;-52
2021/12/26 00:10:24;;;;;;;2.88;2.22;;;;;;;-3.85;100.00;100831.81;5032654;28;20033;-49
2021/12/26 00:12:50;;;;;;;3.95;1.98;;;;;;;-3.86;100.00;100855.78;5033790;28;20464;-53
2021/12/26 00:15:16;;;;;;;3.55;2.38;;;;;;;-3.97;100.00;100852.09;5034276;28;20034;-54
2021/12/26 00:17:46;;;;;;;2.38;1.83;;;;;;;-4.02;100.00;100843.34;5033662;28;20037;-54
2021/12/26 00:20:12;;;;;;;2.28;1.98;;;;;;;-4.07;100.00;100852.66;5033956;28;20113;-50
2021/12/26 00:22:39;;;;;;;3.95;2.05;;;;;;;-4.14;100.00;100855.88;5048045;28;20412;-50
2021/12/26 00:25:06;;;;;;;3.17;2.10;;;;;;;-4.61;100.00;100780.97;5032214;28;20044;-51
2021/12/26 00:27:31;;;;;;;3.08;2.20;;;;;;;-4.24;100.00;100865.06;5033531;28;20061;-52
2021/12/26 00:29:57;;;;;;;3.00;2.05;;;;;;;-4.31;100.00;100844.28;5033455;28;20067;-54
2021/12/26 00:32:22;;;;;;;3.03;2.10;;;;;;;-4.61;100.00;100791.25;5033394;28;20044;-50
2021/12/26 00:34:50;;;;;;;2.70;2.08;;;;;;;-4.59;100.00;100796.44;5032311;28;20109;-48
2021/12/26 00:37:16;;;;;;;3.03;2.13;;;;;;;-4.29;100.00;100858.91;5033336;28;20116;-52
2021/12/26 00:39:42;;;;;;;4.18;2.38;;;;;;;-4.73;100.00;100778.06;5031892;28;20086;-50
2021/12/26 00:42:07;;;;;;;2.88;2.47;;;;;;;-4.78;100.00;100769.38;5033181;28;20111;-49
2021/12/26 00:44:38;;;;;;;3.30;2.05;;;;;;;-4.85;100.00;100758.91;5032386;28;20033;-49
2021/12/26 00:47:04;;;;;;;2.40;2.00;;;;;;;-4.39;100.00;100827.78;5032145;28;20041;-50
2021/12/26 00:49:30;;;;;;;2.67;1.83;;;;;;;-4.42;100.00;100820.88;5031908;28;20401;-51
2021/12/26 00:51:55;;;;;;;4.03;2.38;;;;;;;-4.33;100.00;100846.81;5033266;28;20044;-49
2021/12/26 00:54:21;;;;;;;2.97;2.17;;;;;;;-4.80;100.00;100765.88;5033090;28;20061;-50
2021/12/26 00:56:47;;;;;;;4.47;2.30;;;;;;;-4.43;100.00;100825.97;5032875;28;20049;-51
2021/12/26 00:59:12;;;;;;;5.45;2.08;;;;;;;-4.86;100.00;100750.31;5033209;28;20079;-48
2021/12/26 01:01:37;;;;;;;3.42;2.50;;;;;;;-4.36;100.00;100841.59;5032992;28;20448;-50
2021/12/26 01:04:03;;;;;;;2.60;2.15;;;;;;;-4.75;100.00;100771.13;5032945;28;20036;-52
2021/12/26 01:06:28;;;;;;;4.10;2.00;;;;;;;-4.71;100.00;100783.25;5032773;28;20465;-50
2021/12/26 01:08:54;;;;;;;3.65;2.30;;;;;;;-4.42;100.00;100827.72;5039041;28;20065;-48
2021/12/26 01:11:38;;;;;;;3.22;2.05;;;;;;;-4.48;100.00;100822.41;5052193;28;20659;-51
2021/12/26 01:14:06;;;;;;;2.60;2.10;;;;;;;-4.93;100.00;100757.81;5051968;28;20021;-50
2021/12/26 01:16:32;;;;;;;3.53;1.65;;;;;;;-4.92;100.00;100759.53;5050129;28;20037;-48
2021/12/26 01:19:08;;;;;;;3.67;2.25;;;;;;;-4.48;100.00;100835.25;5051256;28;20036;-48
2021/12/26 01:21:34;;;;;;;2.70;2.00;;;;;;;-4.53;100.00;100814.59;5052143;28;20045;-49
2021/12/26 01:24:03;;;;;;;4.75;2.22;;;;;;;-4.80;100.00;100775.28;5068067;28;20380;-49
2021/12/26 01:26:29;;;;;;;2.15;1.90;;;;;;;-4.41;100.00;100834.59;5051341;28;20032;-48
2021/12/26 01:28:55;;;;;;;2.72;2.05;;;;;;;-4.87;100.00;100755.38;5052701;28;20399;-52
2021/12/26 01:31:22;;;;;;;3.83;1.92;;;;;;;-4.48;100.00;100833.56;5051311;28;20033;-50
2021/12/26 01:33:56;;;;;;;3.97;2.28;;;;;;;-4.69;100.00;100794.41;5052429;28;20400;-52
2021/12/26 01:36:22;;;;;;;2.55;1.92;;;;;;;-4.50;100.00;100826.63;5050989;28;20064;-55
2021/12/26 01:38:47;;;;;;;3.42;2.00;;;;;;;-4.54;100.00;100817.97;5052817;28;20037;-49
2021/12/26 01:41:16;;;;;;;4.57;2.03;;;;;;;-4.67;100.00;100806.47;5052115;28;20036;-51
2021/12/26 01:43:45;;;;;;;4.25;2.55;;;;;;;-4.99;100.00;100744.81;5052307;28;20037;-52
2021/12/26 01:46:11;;;;;;;3.63;2.72;;;;;;;-4.66;100.00;100823.63;5034732;28;20044;-49
2021/12/26 01:48:36;;;;;;;3.15;2.40;;;;;;;-4.73;100.00;100816.56;5050805;28;20033;-53
2021/12/26 01:51:02;;;;;;;2.72;2.00;;;;;;;-4.73;100.00;100808.88;5052650;28;20433;-48
2021/12/26 01:53:36;;;;;;;3.15;1.83;;;;;;;-4.68;100.00;100809.88;5057290;28;20039;-47
2021/12/26 01:56:06;;;;;;;3.58;2.33;;;;;;;-4.94;100.00;100751.81;5041985;28;20045;-50
2021/12/26 01:58:32;;;;;;;3.58;2.22;;;;;;;-5.06;100.00;100737.75;5058522;28;20044;-47
2021/12/26 02:01:05;;;;;;;3.03;2.20;;;;;;;-4.68;100.00;100807.31;5056305;28;20032;-50
2021/12/26 02:03:31;;;;;;;2.83;2.15;;;;;;;-4.64;100.00;100810.84;5057457;28;20502;-49
2021/12/26 02:05:56;;;;;;;2.17;1.98;;;;;;;-4.75;100.00;100794.25;5057644;28;20119;-52
2021/12/26 02:08:23;;;;;;;4.07;2.05;;;;;;;-4.67;100.00;100813.34;5058878;28;20469;-51
2021/12/26 02:10:48;;;;;;;3.25;2.13;;;;;;;-4.70;100.00;100806.38;5057441;28;20033;-51
2021/12/26 02:13:13;;;;;;;3.75;2.33;;;;;;;-4.71;100.00;100809.81;5058737;28;20211;-50
2021/12/26 02:15:39;;;;;;;3.28;2.55;;;;;;;-5.03;100.00;100743.84;5058708;28;20109;-48
2021/12/26 02:18:06;;;;;;;2.45;1.80;;;;;;;-4.71;100.00;100799.53;5057653;28;20029;-50
2021/12/26 02:23:07;;;;;;;2.58;1.65;;;;;;;-4.73;100.00;100797.75;5058775;28;20043;-49
2021/12/26 02:28:11;;;;;;;3.10;2.05;;;;;;;-5.30;100.00;100700.28;5058508;28;20040;-48
2021/12/26 02:30:37;;;;;;;3.45;1.95;;;;;;;-4.76;100.00;100797.66;5058780;28;20064;-49
2021/12/26 02:33:04;;;;;;;2.70;2.03;;;;;;;-5.04;100.00;100743.78;5057369;28;20065;-49
2021/12/26 02:35:30;;;;;;;4.70;2.00;;;;;;;-5.05;100.00;100737.81;5058522;28;20033;-48
2021/12/26 02:37:56;;;;;;;3.85;2.30;;;;;;;-5.23;100.00;100709.94;5057345;28;20025;-51
2021/12/26 02:40:21;;;;;;;3.03;2.28;;;;;;;-4.82;100.00;100790.66;5058550;28;20025;-49
2021/12/26 02:42:46;;;;;;;4.15;1.95;;;;;;;-4.99;100.00;100765.34;5058293;28;20033;-53
2021/12/26 02:45:12;;;;;;;2.20;1.90;;;;;;;-4.83;100.00;100785.47;5057349;28;20098;-48
2021/12/26 02:47:43;;;;;;;3.60;2.55;;;;;;;-5.34;100.00;100688.19;5058764;28;20044;-49
2021/12/26 02:50:11;;;;;;;;;;;;;;;-4.83;100.00;100777.78;5059049;28;20029;-49
2021/12/26 02:52:37;;;;;;;2.80;1.70;;;;;;;-4.94;100.00;100763.75;5058398;28;19908;-51
2021/12/26 02:55:03;;;;;;;2.47;1.70;;;;;;;-5.22;100.00;100721.91;5063714;28;20048;-53
2021/12/26 02:57:29;;;;;;;2.80;1.65;;;;;;;-4.91;100.00;100780.13;5078222;28;20043;-49
2021/12/26 02:59:54;;;;;;;3.55;1.90;;;;;;;-5.14;100.00;100729.84;5060280;28;20045;-50
2021/12/26 03:02:20;;;;;;;3.45;2.30;;;;;;;-4.90;100.00;100760.47;5060180;28;20115;-48
2021/12/26 03:04:45;;;;;;;2.95;2.10;;;;;;;-5.31;100.00;100688.28;5074004;28;20480;-50
2021/12/26 03:07:10;;;;;;;2.65;1.95;;;;;;;-5.14;100.00;100705.03;5057050;28;20505;-51
2021/12/26 03:09:45;;;;;;;3.58;2.38;;;;;;;-4.82;100.00;100757.28;5074954;28;20034;-51
2021/12/26 03:12:11;;;;;;;4.63;2.50;;;;;;;-5.13;100.00;100700.75;5057813;28;20029;-50
2021/12/26 03:14:38;;;;;;;3.08;1.75;;;;;;;-4.79;100.00;100746.22;5075235;28;20495;-50
2021/12/26 03:17:04;;;;;;;3.05;2.08;;;;;;;-5.13;100.00;100690.50;5074952;28;20036;-50
2021/12/26 03:19:36;;;;;;;2.40;1.88;;;;;;;-4.79;100.00;100739.41;5074685;28;20127;-51
2021/12/26 03:22:03;;;;;;;3.35;1.80;;;;;;;-4.84;100.00;100733.25;5074896;28;20039;-50
2021/12/26 03:24:28;;;;;;;3.53;1.90;;;;;;;-4.81;100.00;100730.75;5074642;28;20119;-50
2021/12/26 03:26:59;;;;;;;4.03;1.92;;;;;;;-4.83;100.00;100737.56;5056921;28;20127;-53
2021/12/26 03:29:24;;;;;;;2.17;1.98;;;;;;;-5.23;100.00;100668.00;5056696;28;20652;-49
2021/12/26 03:31:49;;;;;;;4.57;2.03;;;;;;;-4.88;100.00;100740.84;5074699;28;20044;-49
2021/12/26 03:34:15;;;;;;;2.92;2.08;;;;;;;-4.93;100.00;100732.16;5056836;28;20395;-52
2021/12/26 03:36:42;;;;;;;2.63;2.22;;;;;;;-5.30;100.00;100659.25;5074561;28;20028;-49
2021/12/26 03:39:07;;;;;;;3.75;1.95;;;;;;;-5.30;100.00;100674.66;5074261;28;20044;-52
2021/12/26 03:41:32;;;;;;;2.80;1.90;;;;;;;-4.98;100.00;100737.13;5056445;28;20033;-53
2021/12/26 03:43:58;;;;;;;2.63;2.00;;;;;;;-5.33;100.00;100676.25;5074469;28;20037;-53
2021/12/26 03:46:23;;;;;;;2.85;1.95;;;;;;;-5.03;100.00;100731.00;5074302;28;20033;-47
2021/12/26 03:48:48;;;;;;;4.50;2.33;;;;;;;-5.17;100.00;100707.53;5056355;28;20107;-48
2021/12/26 03:51:14;;;;;;;3.03;2.00;;;;;;;-5.24;100.00;100705.59;5074125;28;20492;-49
2021/12/26 03:53:40;;;;;;;2.65;1.85;;;;;;;-4.97;100.00;100738.00;5074117;28;20058;-48
2021/12/26 03:56:05;;;;;;;2.42;1.70;;;;;;;-5.14;100.00;100707.59;5055974;28;20460;-48
2021/12/26 03:58:30;;;;;;;4.10;1.90;;;;;;;-5.26;100.00;100680.75;5074396;28;20036;-52
2021/12/26 04:00:56;;;;;;;2.63;2.10;;;;;;;-4.96;100.00;100727.78;5056180;28;20029;-52
2021/12/26 04:03:21;;;;;;;2.47;2.05;;;;;;;-4.94;100.00;100725.25;5074098;28;20114;-51
2021/12/26 04:05:47;;;;;;;3.47;2.17;;;;;;;-4.91;100.00;100740.75;5073981;28;20127;-49
2021/12/26 04:08:12;;;;;;;3.13;1.95;;;;;;;-5.25;100.00;100667.94;5056079;28;20376;-52
2021/12/26 04:10:38;;;;;;;2.95;2.08;;;;;;;-4.85;100.00;100728.09;5074024;28;20120;-50
2021/12/26 04:13:04;;;;;;;2.25;1.83;;;;;;;-5.11;100.00;100684.56;5074010;28;20066;-48
2021/12/26 04:15:29;;;;;;;3.05;1.95;;;;;;;-5.16;100.00;100668.19;5073736;28;20037;-54
2021/12/26 04:17:57;;;;;;;3.40;2.15;;;;;;;-4.80;100.00;100737.66;5074037;28;20103;-51
2021/12/26 04:20:22;;;;;;;3.15;2.00;;;;;;;-4.79;100.00;100744.53;5056005;28;20028;-51
2021/12/26 04:22:51;;;;;;;2.17;1.80;;;;;;;-4.78;100.00;100741.13;5073532;28;20033;-50
2021/12/26 04:25:18;;;;;;;3.05;1.70;;;;;;;-4.88;100.00;100715.16;5055873;28;20098;-49
2021/12/26 04:27:44;;;;;;;2.70;2.10;;;;;;;-4.93;100.00;100711.59;5055945;28;20502;-49
2021/12/26 04:30:11;;;;;;;2.78;1.77;;;;;;;-4.75;100.00;100732.63;5055684;28;20029;-51
2021/12/26 04:32:37;;;;;;;3.17;2.00;;;;;;;-4.92;100.00;100698.81;5055408;28;20021;-53
2021/12/26 04:35:02;;;;;;;2.65;1.67;;;;;;;-4.76;100.00;100721.47;5073346;28;20376;-51
2021/12/26 04:37:28;;;;;;;2.10;1.70;;;;;;;-4.76;100.00;100716.34;5055291;28;20040;-50
2021/12/26 04:39:53;;;;;;;3.00;1.98;;;;;;;-4.87;100.00;100699.78;5072246;28;20056;-51
2021/12/26 04:42:19;;;;;;;3.13;2.15;;;;;;;-4.75;100.00;100714.66;5073299;28;20042;-52
2021/12/26 04:44:44;;;;;;;3.53;1.98;;;;;;;-5.09;100.00;100656.41;5073215;28;20079;-49
2021/12/26 04:47:10;;;;;;;1.60;1.50;;;;;;;-5.12;100.00;100654.63;5072924;28;20040;-50
2021/12/26 04:49:35;;;;;;;2.97;1.65;;;;;;;-4.84;100.00;100705.00;5073224;28;20036;-49
2021/12/26 04:52:00;;;;;;;4.18;2.03;;;;;;;-5.30;100.00;100636.16;5072959;28;20391;-49
2021/12/26 04:54:26;;;;;;;1.98;1.77;;;;;;;-4.78;100.00;100720.56;5072881;28;20074;-50
2021/12/26 04:56:51;;;;;;;2.17;1.92;;;;;;;-4.80;100.00;100714.53;5072556;28;20548;-51
2021/12/26 04:59:16;;;;;;;2.20;1.88;;;;;;;-4.89;100.00;100698.88;5036545;28;20496;-51
2021/12/26 05:01:42;;;;;;;3.75;1.88;;;;;;;-4.80;100.00;100724.81;5052396;28;20048;-51
2021/12/26 05:04:10;;;;;;;2.28;1.90;;;;;;;-4.80;100.00;100711.09;5071213;28;20032;-51
2021/12/26 05:06:35;;;;;;;3.97;2.10;;;;;;;-5.22;100.00;100632.09;5054546;28;20028;-49
2021/12/26 05:09:00;;;;;;;2.90;1.92;;;;;;;-5.09;100.00;100665.81;5038269;28;20396;-51
2021/12/26 05:11:26;;;;;;;2.60;2.00;;;;;;;-5.32;100.00;100626.69;5072898;28;20479;-49
2021/12/26 05:13:51;;;;;;;2.85;1.73;;;;;;;-5.27;100.00;100636.25;5072839;28;20112;-48
2021/12/26 05:16:16;;;;;;;2.50;1.77;;;;;;;-5.25;100.00;100642.28;5072763;28;20173;-52
2021/12/26 05:18:42;;;;;;;2.42;2.03;;;;;;;-4.89;100.00;100710.84;5072804;28;20029;-51
2021/12/26 05:21:07;;;;;;;2.33;1.58;;;;;;;-4.91;100.00;100705.69;5072518;28;20505;-52
2021/12/26 05:23:33;;;;;;;3.85;2.35;;;;;;;-4.90;100.00;100711.69;5072746;28;20024;-54
2021/12/26 05:25:58;;;;;;;8.20;1.98;;;;;;;-5.25;100.00;100649.97;5072094;28;20043;-52
2021/12/26 05:28:23;;;;;;;2.72;2.13;;;;;;;-4.90;100.00;100709.13;5072591;28;20032;-50
2021/12/26 05:30:49;;;;;;;6.60;2.00;;;;;;;-5.32;100.00;100627.56;5054537;28;20035;-51
2021/12/26 05:33:14;;;;;;;2.95;1.80;;;;;;;-5.26;100.00;100638.00;5054592;28;20032;-49
2021/12/26 05:35:40;;;;;;;1.75;1.50;;;;;;;-5.25;100.00;100631.16;5054447;28;20111;-52
2021/12/26 05:38:05;;;;;;;3.88;2.28;;;;;;;-4.94;100.00;100703.03;5054491;28;20024;-51
2021/12/26 05:40:30;;;;;;;4.47;2.38;;;;;;;-5.24;100.00;100655.97;5054683;28;20472;-49
2021/12/26 05:42:56;;;;;;;3.40;2.00;;;;;;;-5.00;100.00;100694.28;5072261;28;20480;-52
2021/12/26 05:45:22;;;;;;;3.45;2.15;;;;;;;-4.96;100.00;100685.84;5072367;28;20426;-49
2021/12/26 05:47:47;;;;;;;3.83;2.15;;;;;;;-5.04;100.00;100675.38;5054412;28;20429;-50
2021/12/26 05:50:16;;;;;;;2.03;1.70;;;;;;;-5.08;100.00;100662.41;5054331;28;20043;-49
2021/12/26 05:52:42;;;;;;;2.63;2.00;;;;;;;-5.04;100.00;100667.66;5072469;28;20024;-49
2021/12/26 05:55:08;;;;;;;2.65;1.98;;;;;;;-5.06;100.00;100673.59;5054367;28;20024;-50
2021/12/26 05:57:34;;;;;;;4.95;2.08;;;;;;;-5.07;100.00;100670.16;5072383;28;20484;-49
2021/12/26 05:59:59;;;;;;;2.58;1.88;;;;;;;-5.40;100.00;100620.47;5054324;28;20047;-49
2021/12/26 06:02:25;;;;;;;2.42;1.90;;;;;;;-5.08;100.00;100678.69;5054302;28;20037;-48
2021/12/26 06:04:50;;;;;;;5.55;1.88;;;;;;;-5.12;100.00;100667.47;5054210;28;20043;-48
2021/12/26 06:07:16;;;;;;;6.10;2.78;;;;;;;-5.15;100.00;100666.50;5054120;28;20028;-48
2021/12/26 06:09:41;;;;;;;2.63;2.08;;;;;;;-5.15;100.00;100675.06;5054342;28;20028;-49
2021/12/26 06:12:08;;;;;;;2.35;1.70;;;;;;;-5.28;100.00;100657.59;5072224;28;20040;-49
2021/12/26 06:14:33;;;;;;;6.30;2.40;;;;;;;-5.19;100.00;100672.38;5072228;28;20072;-50
2021/12/26 06:16:58;;;;;;;2.67;1.55;;;;;;;-5.23;100.00;100663.75;5072033;28;20047;-51
2021/12/26 06:19:24;;;;;;;2.72;1.90;;;;;;;-5.21;100.00;100679.16;5071895;28;20569;-50
2021/12/26 06:21:49;;;;;;;2.70;2.00;;;;;;;-5.25;100.00;100670.50;5072501;28;20043;-51
2021/12/26 06:24:14;;;;;;;2.53;1.92;;;;;;;-5.57;100.00;100621.72;5072026;28;20032;-51
2021/12/26 06:26:40;;;;;;;4.05;2.15;;;;;;;-5.24;100.00;100677.38;5053958;28;20082;-49
2021/12/26 06:29:05;;;;;;;2.70;2.15;;;;;;;-5.62;100.00;100605.31;5071712;28;20409;-49
2021/12/26 06:31:30;;;;;;;3.42;2.55;;;;;;;-5.60;100.00;100614.78;5053968;28;20139;-50
2021/12/26 06:33:56;;;;;;;3.55;2.50;;;;;;;-5.64;100.00;100604.41;5071802;28;20032;-53
2021/12/26 06:36:21;;;;;;;3.58;3.03;;;;;;;-5.26;100.00;100686.75;5053894;28;20039;-50
2021/12/26 06:38:47;;;;;;;2.97;2.30;;;;;;;-5.27;100.00;100669.59;5074538;28;20028;-49
2021/12/26 06:41:13;;;;;;;5.20;3.17;;;;;;;-5.32;100.00;100666.03;5057850;28;20037;-48
2021/12/26 06:43:39;;;;;;;5.22;2.58;;;;;;;-5.35;100.00;100658.25;5075684;28;20033;-49
2021/12/26 06:46:05;;;;;;;2.65;2.25;;;;;;;-5.31;100.00;100669.47;5075864;28;20033;-51
2021/12/26 06:48:32;;;;;;;3.20;2.55;;;;;;;-5.34;100.00;100672.81;5057591;28;20028;-52
2021/12/26 06:50:58;;;;;;;3.53;2.63;;;;;;;-5.42;100.00;100658.91;5075237;28;20051;-51
2021/12/26 06:53:24;;;;;;;4.30;2.60;;;;;;;-5.62;100.00;100618.13;5057829;28;20063;-53
2021/12/26 06:55:49;;;;;;;2.97;2.03;;;;;;;-5.86;100.00;100573.06;5075335;28;20511;-52
2021/12/26 06:58:15;;;;;;;2.83;2.22;;;;;;;-6.78;100.00;100423.47;5057301;28;20377;-53
2021/12/26 07:00:42;;;;;;;3.35;2.20;;;;;;;-5.61;100.00;100622.44;5075032;28;20555;-51
2021/12/26 07:03:07;;;;;;;4.15;2.40;;;;;;;-5.36;100.00;100655.63;5057282;28;20035;-50
2021/12/26 07:05:33;;;;;;;3.92;3.00;;;;;;;-5.37;100.00;100649.63;5075008;28;20399;-54
2021/12/26 07:07:59;;;;;;;3.63;2.40;;;;;;;-5.42;100.00;100650.34;5075360;28;20053;-49
2021/12/26 07:10:24;;;;;;;3.97;2.78;;;;;;;-5.56;100.00;100620.88;5075112;28;20062;-48
2021/12/26 07:12:50;;;;;;;4.00;2.60;;;;;;;-5.66;100.00;100617.16;5074908;28;20056;-49
2021/12/26 07:15:15;;;;;;;2.80;2.30;;;;;;;-5.40;100.00;100646.97;5074889;28;20135;-50
2021/12/26 07:17:41;;;;;;;5.93;2.58;;;;;;;-5.82;100.00;100576.53;5074819;28;20438;-51
2021/12/26 07:20:09;;;;;;;4.35;2.65;;;;;;;-5.39;100.00;100638.47;5056570;28;20112;-51
2021/12/26 07:22:35;;;;;;;4.18;2.75;;;;;;;-5.43;100.00;100646.88;5074701;28;20052;-49
2021/12/26 07:25:00;;;;;;;4.10;2.38;;;;;;;-5.95;100.00;100554.84;5074656;28;20398;-52
2021/12/26 07:27:26;;;;;;;4.07;2.20;;;;;;;-5.40;100.00;100646.13;5074771;28;20048;-50
2021/12/26 07:29:51;;;;;;;3.33;2.47;;;;;;;-5.50;100.00;100629.59;5074989;28;20577;-51
2021/12/26 07:32:17;;;;;;;4.10;2.45;;;;;;;-5.74;100.00;100595.56;5074602;28;20119;-50
2021/12/26 07:34:42;;;;;;;2.60;2.22;;;;;;;-5.40;100.00;100652.09;5056754;28;20089;-52
2021/12/26 07:37:08;;;;;;;5.00;2.53;;;;;;;-5.82;100.00;100579.97;5074539;28;20480;-49
2021/12/26 07:39:34;;;;;;;3.42;2.70;;;;;;;-5.42;100.00;100658.91;5056567;28;20032;-49
2021/12/26 07:41:59;;;;;;;2.35;2.10;;;;;;;-5.38;100.00;100668.44;5056201;28;20032;-50
2021/12/26 07:44:25;;;;;;;2.75;2.25;;;;;;;-5.40;100.00;100658.97;5074396;28;20400;-52
2021/12/26 07:46:51;;;;;;;2.40;1.85;;;;;;;-5.40;100.00;100654.66;5074267;28;20553;-52
2021/12/26 07:49:17;;;;;;;3.20;2.20;;;;;;;-5.54;100.00;100632.03;5073604;28;20086;-52
2021/12/26 07:51:44;;;;;;;3.28;2.17;;;;;;;-5.39;100.00;100669.25;5074527;28;20040;-50
2021/12/26 07:54:12;;;;;;;3.35;2.15;;;;;;;-5.42;100.00;100646.06;5056703;28;20036;-51
2021/12/26 07:56:37;;;;;;;2.83;2.25;;;;;;;-5.71;100.00;100605.91;5074157;28;20063;-52
2021/12/26 07:59:03;;;;;;;2.95;2.10;;;;;;;-5.78;100.00;100578.38;5056078;28;20446;-53
2021/12/26 08:01:29;;;;;;;3.05;2.22;;;;;;;-5.34;100.00;100669.41;5073729;28;20101;-51
2021/12/26 08:03:54;;;;;;;3.40;2.55;;;;;;;-5.34;100.00;100654.00;5055776;28;20364;-54
2021/12/26 08:06:20;;;;;;;4.75;2.80;;;;;;;-5.60;100.00;100601.94;5073777;28;20032;-50
2021/12/26 08:08:47;;;;;;;4.53;2.42;;;;;;;-5.29;100.00;100661.00;5039607;28;20427;-51
2021/12/26 08:11:13;;;;;;;4.97;2.65;;;;;;;-5.67;100.00;100582.13;5056112;28;20430;-48
2021/12/26 08:13:38;;;;;;;3.35;2.25;;;;;;;-5.42;100.00;100625.56;5073790;28;20091;-49
2021/12/26 08:16:04;;;;;;;3.38;2.70;;;;;;;-5.19;100.00;100649.28;5073685;28;20120;-49
2021/12/26 08:18:29;;;;;;;3.88;2.80;;;;;;;-5.17;100.00;100663.03;5073639;28;20037;-48
2021/12/26 08:20:55;;;;;;;4.53;3.30;;;;;;;-5.17;100.00;100661.34;5073964;28;20380;-49
2021/12/26 08:23:20;;;;;;;3.40;2.78;;;;;;;-5.30;100.00;100635.28;5073737;28;20040;-50
2021/12/26 08:25:46;;;;;;;3.92;2.45;;;;;;;-5.17;100.00;100648.50;5055600;28;20048;-53
2021/12/26 08:28:14;;;;;;;4.50;2.60;;;;;;;-5.20;100.00;100629.59;5073512;28;20036;-51
2021/12/26 08:30:40;;;;;;;3.05;2.75;;;;;;;-5.12;100.00;100646.06;5073452;28;20121;-49
2021/12/26 08:33:07;;;;;;;2.83;2.50;;;;;;;-5.39;100.00;100594.00;5073396;28;20079;-51
2021/12/26 08:35:33;;;;;;;3.60;2.67;;;;;;;-5.07;100.00;100641.91;5055568;28;20029;-53
2021/12/26 08:37:59;;;;;;;3.28;2.60;;;;;;;-4.96;100.00;100658.47;5055955;28;20059;-53
2021/12/26 08:40:24;;;;;;;3.30;2.70;;;;;;;-5.32;100.00;100577.94;5055489;28;20079;-52
2021/12/26 08:42:50;;;;;;;5.22;3.17;;;;;;;-4.94;100.00;100646.56;5073172;28;20032;-49
2021/12/26 08:45:16;;;;;;;3.40;2.45;;;;;;;-5.33;100.00;100579.66;5038049;28;20032;-50
2021/12/26 08:47:41;;;;;;;5.95;2.90;;;;;;;-4.76;100.00;100654.72;5073027;28;20392;-53
2021/12/26 08:50:08;;;;;;;4.07;2.80;;;;;;;-5.19;100.00;100580.88;5055371;28;20032;-50
2021/12/26 08:52:34;;;;;;;3.55;2.30;;;;;;;-5.18;100.00;100566.34;5073168;28;20033;-49
2021/12/26 08:54:59;;;;;;;4.53;2.70;;;;;;;-4.65;100.00;100655.88;5055242;28;20067;-50
2021/12/26 08:57:25;;;;;;;3.25;2.75;;;;;;;-4.58;100.00;100659.47;5072889;28;20071;-49
2021/12/26 08:59:50;;;;;;;3.17;2.63;;;;;;;-4.53;100.00;100672.44;5072908;28;20411;-49
2021/12/26 09:02:16;;;;;;;3.55;2.70;;;;;;;-4.46;100.00;100664.91;5053939;28;20036;-48
2021/12/26 09:04:41;;;;;;;6.35;2.50;;;;;;;-4.77;100.00;100609.34;5073059;28;20024;-49
2021/12/26 09:07:09;;;;;;;3.58;3.00;;;;;;;-4.78;100.00;100592.19;5055056;28;20400;-53
2021/12/26 09:09:35;;;;;;;5.70;2.53;;;;;;;-4.32;100.00;100660.97;5055077;28;20029;-48
2021/12/26 09:12:01;;;;;;;4.95;2.55;;;;;;;-4.32;100.00;100663.53;5072714;28;20059;-52
2021/12/26 09:14:29;;;;;;;4.80;2.67;;;;;;;-4.19;100.00;100655.31;5072650;28;20028;-48
2021/12/26 09:16:55;;;;;;;7.55;3.03;;;;;;;-4.11;100.00;100669.19;5055372;28;20086;-50
2021/12/26 09:19:21;;;;;;;4.35;2.60;;;;;;;-4.49;100.00;100584.34;5054864;28;20036;-51
2021/12/26 09:21:47;;;;;;;4.03;2.63;;;;;;;-4.37;100.00;100593.19;5072419;28;20032;-50
2021/12/26 09:24:12;;;;;;;2.92;2.30;;;;;;;-3.95;100.00;100657.59;5072528;28;20047;-51
2021/12/26 09:26:38;;;;;;;3.50;2.78;;;;;;;-4.34;100.00;100583.00;5054706;28;20071;-50
2021/12/26 09:29:03;;;;;;;2.80;2.60;;;;;;;-3.85;100.00;100651.78;5054759;28;20029;-51
2021/12/26 09:31:29;;;;;;;2.97;2.55;;;;;;;-3.78;100.00;100663.09;5073057;28;20119;-52
2021/12/26 09:33:54;;;;;;;4.18;2.90;;;;;;;-3.80;100.00;100646.78;5072859;28;20028;-52
2021/12/26 09:36:20;;;;;;;3.22;2.63;;;;;;;-4.05;100.00;100605.09;5072502;28;20044;-51
2021/12/26 09:38:45;;;;;;;5.90;2.83;;;;;;;-3.64;100.00;100669.41;5072748;28;20029;-51
2021/12/26 09:41:11;;;;;;;4.07;2.90;;;;;;;-3.52;100.00;100667.97;5072224;28;20037;-51
2021/12/26 09:43:37;;;;;;;3.90;3.42;;;;;;;-3.84;100.00;100589.25;5072187;28;20415;-52
2021/12/26 09:46:03;;;;;;;3.17;2.67;;;;;;;-3.30;100.00;100653.88;5054322;28;20069;-48
2021/12/26 09:48:28;;;;;;;3.70;2.83;;;;;;;-3.19;100.00;100659.22;5072345;28;20088;-49
2021/12/26 09:50:54;;;;;;;4.55;2.58;;;;;;;-3.07;100.00;100649.16;5054284;28;20039;-51
2021/12/26 09:53:20;;;;;;;3.65;2.90;;;;;;;-3.03;100.00;100650.94;5072166;28;20039;-49
2021/12/26 09:55:45;;;;;;;5.20;3.45;;;;;;;-2.90;100.00;100635.75;5071945;28;20063;-49
2021/12/26 09:58:11;;;;;;;5.97;3.47;;;;;;;-2.75;100.00;100635.16;5072642;28;20033;-51
2021/12/26 10:00:39;;;;;;;4.65;3.10;;;;;;;-2.88;100.00;100587.72;5072109;28;20062;-53
2021/12/26 10:03:33;;;;;;;3.33;3.03;;;;;;;-2.46;100.00;100618.50;5072152;28;20061;-51
2021/12/26 10:06:17;;;;;;;3.85;3.28;;;;;;;-2.70;100.00;100550.22;5072098;28;20028;-51
2021/12/26 10:08:51;;;;;;;5.18;3.40;;;;;;;-2.11;100.00;100625.91;5071971;28;20122;-49
2021/12/26 10:11:18;;;;;;;3.75;2.80;;;;;;;-2.08;100.00;100621.69;5072165;28;20029;-52
2021/12/26 10:13:43;;;;;;;6.93;3.80;;;;;;;-2.00;100.00;100629.50;5056717;28;20502;-51
2021/12/26 10:16:09;;;;;;;4.45;3.17;;;;;;;-2.05;100.00;100592.47;5075420;28;20033;-53
2021/12/26 10:18:39;;;;;;;3.72;3.05;;;;;;;-1.76;100.00;100619.56;5075936;28;20484;-51
2021/12/26 10:21:28;;;;;;;4.78;3.03;;;;;;;-1.71;100.00;100635.94;5075339;28;20625;-50
2021/12/26 10:23:56;;;;;;;4.53;3.40;;;;;;;-1.99;100.00;100557.34;5058144;28;20503;-51
2021/12/26 10:26:24;;;;;;;3.80;3.28;;;;;;;-1.73;100.00;100584.34;5076101;28;20077;-51
2021/12/26 10:29:30;;;;;;;4.50;3.63;;;;;;;-1.50;100.00;100605.28;5075770;28;20403;-51
2021/12/26 10:32:02;;;;;;;5.50;3.17;;;;;;;-1.52;100.00;100590.63;5064040;28;20055;-50
2021/12/26 10:34:49;;;;;;;4.55;3.58;;;;;;;-1.44;100.00;100601.91;5076236;28;20169;-54
2021/12/26 10:37:21;;;;;;;4.28;3.30;;;;;;;-1.80;100.00;100525.75;5075536;28;20028;-52
2021/12/26 10:39:52;;;;;;;5.20;3.35;;;;;;;-1.33;100.00;100603.75;5075355;28;20452;-50
2021/12/26 10:42:24;;;;;;;6.20;4.38;;;;;;;-1.24;100.00;100593.53;5075587;28;20464;-54
2021/12/26 10:44:54;;;;;;;4.30;3.72;;;;;;;-1.20;100.00;100591.84;5057524;28;20020;-48
2021/12/26 10:47:28;;;;;;;5.15;4.10;;;;;;;-1.51;100.00;100505.44;5074844;28;20040;-48
2021/12/26 10:49:58;;;;;;;4.47;3.75;;;;;;;-1.01;100.00;100574.81;5056933;28;20463;-52
2021/12/26 10:52:32;;;;;;;10.52;4.28;;;;;;;-0.97;100.00;100580.03;5056706;28;20372;-51
2021/12/26 10:55:00;;;;;;;4.85;3.60;;;;;;;-0.89;100.00;100577.53;5075472;28;20484;-52
2021/12/26 10:57:33;;;;;;;8.23;4.75;;;;;;;-0.84;100.00;100568.97;5074615;28;20052;-52
2021/12/26 11:00:10;;;;;;;4.85;4.07;;;;;;;-1.01;100.00;100517.97;5040441;28;20029;-50
2021/12/26 11:02:37;;;;;;;6.53;4.07;;;;;;;-0.67;100.00;100575.13;5075134;28;20043;-52
2021/12/26 11:05:06;;;;;;;5.05;3.80;;;;;;;-0.61;100.00;100575.19;5075102;28;20093;-54
2021/12/26 11:07:48;;;;;;;4.43;3.75;;;;;;;-0.57;100.00;100571.78;5075089;28;20032;-54
2021/12/26 11:10:18;;;;;;;9.15;4.50;;;;;;;-0.90;100.00;100506.91;5057315;28;20119;-54
2021/12/26 11:12:50;;;;;;;4.20;3.72;;;;;;;-0.90;100.00;100508.59;5057014;28;20025;-54
2021/12/26 11:15:17;;;;;;;8.40;4.50;;;;;;;-0.53;100.00;100580.44;5074581;28;20029;-50
2021/12/26 11:17:50;;;;;;;4.25;3.80;;;;;;;-0.65;100.00;100550.19;5074588;28;20032;-52
2021/12/26 11:20:26;;;;;;;5.68;4.50;;;;;;;-0.52;100.00;100569.22;5056574;28;20040;-51